Time;durP1;ratioP1;P1;durP2;ratioP2;P2;SDS_P1;SDS_P2;PMS_P1;PMS_P2;Temp;Humidity;BMP_temperature;BMP_pressure;BME280_temperature;BME280_humidity;BME280_pressure;Samples;Min_cycle;Max_cycle;Signal;HPM_P1;HPM_P2
2022/04/18 00:01:45;;;;;;;;;6.25;5.75;;;;;13.10;46.51;99114.34;5094807;27;45301;-60
2022/04/18 00:04:11;;;;;;;;;7.00;6.75;;;;;13.07;46.68;99114.53;5093428;27;45614;-60
2022/04/18 00:06:36;;;;;;;;;7.75;7.75;;;;;13.05;46.53;99117.25;5095187;27;46315;-60
2022/04/18 00:09:03;;;;;;;;;7.25;6.25;;;;;13.04;46.47;99114.69;5092468;27;45451;-60
2022/04/18 00:11:29;;;;;;;;;9.25;8.75;;;;;13.05;46.98;99119.03;5095554;27;45410;-60
2022/04/18 00:13:54;;;;;;;;;6.25;6.25;;;;;13.03;46.93;99120.91;5092199;27;45408;-61
2022/04/18 00:16:20;;;;;;;;;9.25;7.75;;;;;13.00;47.14;99116.63;5095872;27;45653;-60
2022/04/18 00:18:45;;;;;;;;;6.00;4.25;;;;;13.00;47.58;99121.91;5091573;27;45478;-60
2022/04/18 00:21:11;;;;;;;;;7.75;7.25;;;;;12.98;47.08;99125.56;5097281;27;45364;-60
2022/04/18 00:23:36;;;;;;;;;6.75;6.75;;;;;12.92;47.45;99122.28;5092937;27;45632;-60
2022/04/18 00:26:02;;;;;;;;;6.25;6.00;;;;;12.87;48.07;99119.03;5096665;27;45891;-61
2022/04/18 00:28:28;;;;;;;;;10.00;8.25;;;;;12.84;48.16;99123.59;5092635;27;45369;-60
2022/04/18 00:30:53;;;;;;;;;10.00;10.00;;;;;12.80;48.22;99120.25;5096772;27;45397;-60
2022/04/18 00:33:19;;;;;;;;;10.50;8.00;;;;;12.76;48.58;99118.66;5094002;27;45401;-60
2022/04/18 00:35:44;;;;;;;;;8.00;8.00;;;;;12.76;48.64;99117.81;5095841;27;45517;-60
2022/04/18 00:38:10;;;;;;;;;8.50;8.50;;;;;12.74;48.87;99125.81;5086965;27;45328;-60
2022/04/18 00:40:35;;;;;;;;;7.50;7.50;;;;;12.73;49.18;99120.63;5095551;27;45340;-60
2022/04/18 00:43:05;;;;;;;;;7.00;7.00;;;;;12.71;48.58;99117.19;5088114;27;45411;-60
2022/04/18 00:45:31;;;;;;;;;8.00;8.00;;;;;12.68;48.64;99115.56;5094943;27;45367;-60
2022/04/18 00:47:56;;;;;;;;;7.00;6.75;;;;;12.66;48.92;99114.78;5085846;27;45474;-60
2022/04/18 00:50:22;;;;;;;;;6.00;5.50;;;;;12.64;48.52;99113.97;5095599;27;45370;-61
2022/04/18 00:52:51;;;;;;;;;7.25;7.00;;;;;12.62;48.68;99115.84;5088914;27;45494;-60
2022/04/18 00:55:18;;;;;;;;;7.75;6.75;;;;;12.62;48.92;99112.34;5095540;27;46086;-60
2022/04/18 00:57:44;;;;;;;;;7.00;7.00;;;;;12.60;48.83;99115.06;5090181;27;45495;-59
2022/04/18 01:00:10;;;;;;;;;8.00;7.25;;;;;12.61;49.20;99115.91;5096263;27;45432;-60
2022/04/18 01:02:36;;;;;;;;;5.50;5.50;;;;;12.56;49.11;99108.22;5090077;27;45579;-62
2022/04/18 01:05:02;;;;;;;;;5.00;5.00;;;;;12.55;49.42;99098.59;5096420;27;46163;-62
2022/04/18 01:07:28;;;;;;;;;9.50;7.25;;;;;12.53;49.58;99111.88;5089913;27;45540;-62
2022/04/18 01:09:54;;;;;;;;;7.25;7.00;;;;;12.50;49.38;99104.09;5096449;27;45214;-60
2022/04/18 01:12:20;;;;;;;;;7.50;7.50;;;;;12.49;49.62;99109.44;5089403;27;45393;-60
2022/04/18 01:14:47;;;;;;;;;8.25;8.00;;;;;12.46;49.65;99128.09;5095232;27;46188;-59
2022/04/18 01:17:13;;;;;;;;;7.75;7.75;;;;;12.42;49.45;99115.94;5091880;27;45458;-60
2022/04/18 01:19:38;;;;;;;;;8.00;8.00;;;;;12.38;49.96;99120.53;5091553;27;45430;-61
2022/04/18 01:22:04;;;;;;;;;5.75;5.75;;;;;12.37;50.03;99117.97;5091256;27;45515;-62
2022/04/18 01:30:00;;;;;;;;;10.00;8.25;;;;;12.29;50.16;99120.97;5093597;27;45360;-60
2022/04/18 01:32:25;;;;;;;;;8.25;7.00;;;;;12.28;50.02;99115.75;5092916;27;45425;-60
2022/04/18 01:34:51;;;;;;;;;7.75;7.00;;;;;12.27;50.06;99114.03;5094982;27;46340;-60
2022/04/18 01:37:16;;;;;;;;;6.00;5.50;;;;;12.23;50.29;99116.81;5089405;27;45500;-60
2022/04/18 01:39:42;;;;;;;;;8.75;8.00;;;;;12.20;50.65;99110.81;5087525;27;45364;-60
2022/04/18 01:42:07;;;;;;;;;11.00;9.25;;;;;12.18;50.67;99121.47;5093798;27;45517;-60
2022/04/18 01:44:33;;;;;;;;;7.75;7.00;;;;;12.18;50.74;99118.81;5087717;27;46191;-60
2022/04/18 01:46:58;;;;;;;;;7.75;7.75;;;;;12.16;50.47;99123.31;5093607;27;45363;-61
2022/04/18 01:49:24;;;;;;;;;7.50;7.00;;;;;12.14;50.10;99122.53;5096022;27;45367;-60
2022/04/18 01:51:49;;;;;;;;;7.00;7.00;;;;;12.14;49.98;99124.31;5092117;27;45209;-60
2022/04/18 01:54:14;;;;;;;;;5.25;5.25;;;;;12.08;49.79;99129.88;5095011;27;46257;-60
2022/04/18 01:56:40;;;;;;;;;4.25;4.00;;;;;12.02;49.87;99124.88;5093936;27;45337;-60
2022/04/18 01:59:05;;;;;;;;;8.00;6.75;;;;;11.98;49.91;99137.38;5091632;27;45378;-60
2022/04/18 02:01:31;;;;;;;;;7.25;5.75;;;;;11.94;49.79;99130.50;5094899;27;45440;-60
2022/04/18 02:03:56;;;;;;;;;7.75;7.00;;;;;11.93;50.19;99130.56;5094837;27;45548;-60
2022/04/18 02:06:22;;;;;;;;;6.75;5.75;;;;;11.90;50.32;99142.13;5098473;27;45438;-60
2022/04/18 02:08:47;;;;;;;;;11.25;8.00;;;;;11.88;50.29;99136.09;5092003;27;45525;-60
2022/04/18 02:11:13;;;;;;;;;6.25;6.25;;;;;11.85;50.32;99139.72;5099317;27;45501;-60
2022/04/18 02:13:39;;;;;;;;;8.00;7.50;;;;;11.82;50.13;99137.22;5093107;27;45443;-60
2022/04/18 02:16:05;;;;;;;;;6.00;6.00;;;;;11.81;50.10;99142.56;5099129;27;45309;-60
2022/04/18 02:18:30;;;;;;;;;7.75;6.00;;;;;11.78;50.17;99142.69;5092690;27;45556;-60
2022/04/18 02:20:56;;;;;;;;;4.25;4.25;;;;;11.75;49.79;99148.06;5099270;27;45435;-60
2022/04/18 02:23:22;;;;;;;;;9.00;6.00;;;;;11.73;49.60;99144.69;5094627;27;45565;-60
2022/04/18 02:25:47;;;;;;;;;6.00;6.00;;;;;11.70;49.68;99153.59;5095282;27;45310;-60
2022/04/18 02:28:13;;;;;;;;;7.00;6.00;;;;;11.68;50.12;99146.66;5094180;27;45382;-60
2022/04/18 02:30:38;;;;;;;;;6.25;5.75;;;;;11.65;50.09;99147.63;5097525;27;45553;-60
2022/04/18 02:33:04;;;;;;;;;7.75;6.00;;;;;11.63;50.10;99152.13;5094803;27;46160;-60
2022/04/18 02:35:30;;;;;;;;;4.50;4.50;;;;;11.61;50.18;99147.84;5098818;27;45368;-60
2022/04/18 02:37:55;;;;;;;;;5.50;5.50;;;;;11.58;50.37;99151.47;5097274;27;45370;-60
2022/04/18 02:40:22;;;;;;;;;5.75;5.75;;;;;11.56;50.48;99152.47;5098920;27;45443;-60
2022/04/18 02:42:48;;;;;;;;;5.50;5.00;;;;;11.53;50.95;99164.88;5092334;27;46429;-60
2022/04/18 02:45:18;;;;;;;;;6.75;6.50;;;;;11.51;50.88;99163.22;5094725;27;45393;-60
2022/04/18 02:47:43;;;;;;;;;6.00;6.00;;;;;11.48;51.12;99163.34;5092143;27;45277;-60
2022/04/18 02:50:09;;;;;;;;;7.00;6.25;;;;;11.47;51.39;99162.50;5098399;27;45322;-60
2022/04/18 02:52:36;;;;;;;;;6.00;6.00;;;;;11.47;51.71;99162.50;5092977;27;46254;-60
2022/04/18 02:55:01;;;;;;;;;8.25;7.00;;;;;11.45;51.72;99161.69;5095434;27;45394;-60
2022/04/18 02:57:27;;;;;;;;;7.00;7.00;;;;;11.43;51.92;99155.63;5092329;27;45362;-60
2022/04/18 02:59:52;;;;;;;;;7.50;5.50;;;;;11.43;51.86;99157.41;5098295;27;45491;-60
2022/04/18 03:02:18;;;;;;;;;5.00;5.00;;;;;11.39;51.90;99155.84;5092919;27;45419;-60
2022/04/18 03:04:44;;;;;;;;;6.00;6.00;;;;;11.37;52.00;99155.03;5098506;27;45337;-60
2022/04/18 03:07:09;;;;;;;;;7.75;7.00;;;;;11.34;51.62;99157.81;5093087;27;45526;-60
2022/04/18 03:09:34;;;;;;;;;6.67;6.67;;;;;11.32;51.46;99154.38;5095187;27;45376;-60
2022/04/18 03:12:02;;;;;;;;;8.25;8.00;;;;;11.30;51.33;99156.22;5094151;27;46059;-60
2022/04/18 03:14:29;;;;;;;;;6.00;6.00;;;;;11.27;51.61;99162.47;5095402;27;45651;-62
2022/04/18 03:16:55;;;;;;;;;8.25;8.00;;;;;11.24;51.75;99154.69;5094545;27;45546;-62
2022/04/18 03:19:20;;;;;;;;;6.00;6.00;;;;;11.22;51.72;99155.69;5094205;27;45333;-62
2022/04/18 03:21:46;;;;;;;;;7.00;7.00;;;;;11.19;51.39;99161.97;5096385;27;45858;-62
2022/04/18 03:24:11;;;;;;;;;5.75;5.75;;;;;11.16;51.43;99162.09;5092999;27;45296;-61
2022/04/18 03:26:37;;;;;;;;;6.00;5.75;;;;;11.14;51.94;99159.50;5096283;27;45455;-61
2022/04/18 03:29:02;;;;;;;;;6.50;6.50;;;;;11.15;51.88;99163.00;5095984;27;45460;-62
2022/04/18 03:31:28;;;;;;;;;7.75;3.50;;;;;11.14;51.81;99162.16;5096307;27;45445;-61
2022/04/18 03:33:53;;;;;;;;;5.75;5.00;;;;;11.13;51.82;99159.56;5095827;27;45474;-61
2022/04/18 03:41:47;;;;;;;;;6.00;6.00;;;;;11.06;52.25;99152.84;5095598;27;45484;-61
2022/04/18 03:44:13;;;;;;;;;9.50;6.00;;;;;11.03;52.25;99151.19;5089809;27;45400;-62
2022/04/18 03:46:38;;;;;;;;;3.25;3.25;;;;;11.01;52.20;99153.03;5096506;27;45444;-62
2022/04/18 03:49:04;;;;;;;;;6.00;6.00;;;;;10.99;52.48;99146.97;5092926;27;45464;-61
2022/04/18 03:51:29;;;;;;;;;4.50;4.25;;;;;10.97;52.29;99155.84;5096792;27;45508;-61
2022/04/18 03:53:55;;;;;;;;;5.50;5.25;;;;;10.95;52.41;99155.03;5089968;27;45474;-61
2022/04/18 03:56:20;;;;;;;;;7.25;7.25;;;;;10.91;52.72;99149.03;5096976;27;45440;-62
2022/04/18 03:58:46;;;;;;;;;7.00;6.00;;;;;10.89;53.05;99155.31;5095726;27;45480;-61
2022/04/18 04:01:11;;;;;;;;;9.25;7.50;;;;;10.87;52.98;99154.53;5097337;27;46603;-62
2022/04/18 04:03:37;;;;;;;;;8.25;8.25;;;;;10.83;53.42;99152.00;5086839;27;45556;-61
2022/04/18 04:06:02;;;;;;;;;2.00;2.00;;;;;10.81;53.32;99156.47;5097489;27;45453;-62
2022/04/18 04:08:29;;;;;;;;;2.50;1.75;;;;;10.78;52.90;99153.97;5090883;27;45467;-61
2022/04/18 04:10:54;;;;;;;;;8.75;8.00;;;;;10.76;53.08;99153.16;5097097;27;45483;-61
2022/04/18 04:13:20;;;;;;;;;6.75;6.00;;;;;10.73;53.17;99157.69;5092615;27;45324;-62
2022/04/18 04:15:46;;;;;;;;;5.00;5.00;;;;;10.69;53.28;99164.88;5097145;27;45498;-61
2022/04/18 04:18:11;;;;;;;;;7.25;7.25;;;;;10.65;53.28;99165.91;5090898;27;45459;-61
2022/04/18 04:20:37;;;;;;;;;8.75;7.00;;;;;10.62;53.49;99173.94;5091560;27;45575;-61
2022/04/18 04:23:03;;;;;;;;;8.50;6.75;;;;;10.60;53.61;99169.66;5091851;27;45433;-62
2022/04/18 04:25:29;;;;;;;;;7.00;7.00;;;;;10.60;53.61;99177.56;5093727;27;45506;-61
2022/04/18 04:27:54;;;;;;;;;5.00;4.00;;;;;10.58;53.21;99174.97;5092781;27;45422;-62
2022/04/18 04:30:19;;;;;;;;;6.50;6.50;;;;;10.57;53.86;99170.63;5097087;27;46172;-61
2022/04/18 04:32:45;;;;;;;;;13.50;7.50;;;;;10.56;54.02;99170.72;5094340;27;45368;-61
2022/04/18 04:35:11;;;;;;;;;7.00;6.00;;;;;10.54;54.10;99168.13;5094761;27;45441;-62
2022/04/18 04:37:36;;;;;;;;;7.00;6.00;;;;;10.52;53.87;99171.75;5092715;27;45403;-61
2022/04/18 04:40:03;;;;;;;;;8.50;8.25;;;;;10.51;53.90;99176.16;5090366;27;46138;-61
2022/04/18 04:42:29;;;;;;;;;8.50;7.25;;;;;10.49;53.92;99168.31;5093373;27;45502;-61
2022/04/18 04:44:54;;;;;;;;;4.50;4.50;;;;;10.49;54.02;99175.34;5089832;27;45397;-61
2022/04/18 04:47:20;;;;;;;;;5.75;5.75;;;;;10.46;53.43;99170.19;5090455;27;45527;-61
2022/04/18 04:49:45;;;;;;;;;6.25;6.00;;;;;10.44;53.77;99172.88;5096450;27;46428;-62
2022/04/18 04:52:11;;;;;;;;;7.25;6.75;;;;;10.45;53.66;99176.38;5093884;27;45292;-61
2022/04/18 04:54:36;;;;;;;;;6.00;6.00;;;;;10.43;53.54;99173.81;5091079;27;45393;-62
2022/04/18 04:57:02;;;;;;;;;5.00;5.00;;;;;10.42;53.83;99172.09;5092760;27;45496;-62
2022/04/18 04:59:27;;;;;;;;;6.50;6.00;;;;;10.43;53.72;99181.72;5093812;27;46532;-61
2022/04/18 05:01:52;;;;;;;;;7.00;6.00;;;;;10.46;53.89;99178.09;5093916;27;45510;-61
2022/04/18 05:04:18;;;;;;;;;5.00;4.00;;;;;10.46;53.73;99178.09;5092742;27;45470;-62
2022/04/18 05:06:44;;;;;;;;;6.50;6.50;;;;;10.47;53.60;99179.81;5094628;27;45493;-61
2022/04/18 05:09:09;;;;;;;;;5.25;5.25;;;;;10.47;54.01;99185.09;5094816;27;45431;-62
2022/04/18 05:11:35;;;;;;;;;6.25;6.25;;;;;10.45;53.90;99190.41;5094856;27;45377;-62
2022/04/18 05:14:00;;;;;;;;;7.25;6.50;;;;;10.46;54.05;99186.00;5093428;27;45361;-61
2022/04/18 05:16:26;;;;;;;;;6.25;6.25;;;;;10.44;53.77;99193.97;5094834;27;45645;-62
2022/04/18 05:18:51;;;;;;;;;6.75;5.75;;;;;10.41;54.18;99190.59;5091346;27;46166;-61
2022/04/18 05:21:17;;;;;;;;;9.25;5.75;;;;;10.40;54.16;99191.50;5093914;27;45474;-61
2022/04/18 05:23:43;;;;;;;;;7.00;6.25;;;;;10.37;54.21;99189.88;5089208;27;45392;-61
2022/04/18 05:26:08;;;;;;;;;7.00;6.50;;;;;10.37;54.70;99196.91;5095736;27;45555;-62
2022/04/18 05:28:33;;;;;;;;;11.75;11.00;;;;;10.37;55.17;99199.56;5091533;27;46172;-61
2022/04/18 05:30:59;;;;;;;;;12.00;10.67;;;;;10.38;55.26;99204.75;5095907;27;45347;-62
2022/04/18 05:33:25;;;;;;;;;11.33;11.33;;;;;10.41;55.59;99211.66;5092739;27;45420;-61
2022/04/18 05:35:50;;;;;;;;;9.25;9.25;;;;;10.41;55.58;99209.91;5095155;27;45465;-61
2022/04/18 05:38:17;;;;;;;;;8.50;8.50;;;;;10.41;55.64;99217.81;5085908;27;45299;-61
2022/04/18 05:40:43;;;;;;;;;10.50;7.75;;;;;10.41;55.21;99214.31;5095032;27;45344;-61
2022/04/18 05:43:08;;;;;;;;;7.50;7.50;;;;;10.42;55.28;99210.75;5086409;27;45438;-61
2022/04/18 05:45:36;;;;;;;;;7.75;7.75;;;;;10.43;54.99;99215.09;5094193;27;45373;-61
2022/04/18 05:48:02;;;;;;;;;7.75;6.75;;;;;10.44;55.24;99215.06;5088938;27;45631;-61
2022/04/18 05:50:27;;;;;;;;;7.25;7.00;;;;;10.45;55.27;99214.13;5091130;27;45444;-61
2022/04/18 05:52:53;;;;;;;;;10.50;8.25;;;;;10.43;55.35;99213.34;5083497;27;45438;-61
2022/04/18 05:55:20;;;;;;;;;8.00;7.75;;;;;10.46;55.38;99217.63;5092902;27;45592;-61
2022/04/18 05:57:45;;;;;;;;;8.33;8.33;;;;;10.50;54.97;99219.25;5089018;27;45826;-61
2022/04/18 06:00:11;;;;;;;;;6.00;4.75;;;;;10.53;55.20;99215.63;5093453;27;45355;-61
2022/04/18 06:02:37;;;;;;;;;11.00;8.00;;;;;10.56;55.24;99215.53;5088857;27;45303;-60
2022/04/18 06:05:03;;;;;;;;;7.00;6.67;;;;;10.59;55.14;99216.25;5094981;27;45429;-61
2022/04/18 06:07:28;;;;;;;;;7.33;7.33;;;;;10.62;54.86;99218.75;5087607;27;45556;-61
2022/04/18 06:09:53;;;;;;;;;9.00;9.00;;;;;10.67;54.79;99211.53;5088394;27;45387;-60
2022/04/18 06:12:22;;;;;;;;;9.00;9.00;;;;;10.72;54.99;99217.50;5088491;27;45391;-60
2022/04/18 06:14:47;;;;;;;;;13.00;11.00;;;;;10.77;54.98;99212.88;5094184;27;45398;-61
2022/04/18 06:17:13;;;;;;;;;8.00;7.25;;;;;10.83;54.74;99210.03;5084095;27;45438;-60
2022/04/18 06:19:39;;;;;;;;;8.67;7.00;;;;;10.88;54.20;99209.84;5093846;27;45541;-60
2022/04/18 06:22:04;;;;;;;;;8.00;6.00;;;;;10.92;54.11;99207.91;5090136;27;45388;-60
2022/04/18 06:24:30;;;;;;;;;12.67;9.67;;;;;10.97;54.10;99214.75;5086747;27;45468;-61
2022/04/18 06:26:55;;;;;;;;;6.25;6.25;;;;;11.03;53.73;99211.88;5091622;27;45652;-61
2022/04/18 06:29:21;;;;;;;;;7.33;7.33;;;;;11.08;53.41;99211.66;5089995;27;45429;-61
2022/04/18 06:31:46;;;;;;;;;5.75;4.00;;;;;11.13;53.00;99222.88;5092769;27;45166;-61
2022/04/18 06:34:12;;;;;;;;;6.50;4.75;;;;;11.18;53.10;99220.94;5091942;27;45407;-61
2022/04/18 06:36:38;;;;;;;;;7.00;6.50;;;;;11.25;52.60;99216.25;5091763;27;46076;-61
2022/04/18 06:39:04;;;;;;;;;7.50;7.50;;;;;11.31;52.40;99216.00;5092708;27;45465;-61
2022/04/18 06:41:30;;;;;;;;;8.00;7.00;;;;;11.36;52.35;99212.25;5089562;27;45413;-61
2022/04/18 06:43:56;;;;;;;;;6.00;6.00;;;;;11.42;51.90;99216.41;5091633;27;45568;-61
2022/04/18 06:46:21;;;;;;;;;8.75;8.00;;;;;11.48;51.53;99219.66;5096620;27;45440;-61
2022/04/18 06:48:46;;;;;;;;;9.00;9.00;;;;;11.54;51.64;99210.63;5092466;27;45518;-62
2022/04/18 06:51:12;;;;;;;;;6.50;6.00;;;;;11.60;51.26;99222.69;5097934;27;45462;-62
2022/04/18 06:53:37;;;;;;;;;10.00;8.00;;;;;11.66;51.32;99219.78;5088574;27;45470;-61
2022/04/18 06:58:47;;;;;;;;;7.00;7.00;;;;;11.79;51.22;99218.38;5090950;27;45511;-62
2022/04/18 07:01:12;;;;;;;;;8.75;8.50;;;;;11.84;50.80;99217.25;5097697;27;45614;-61
2022/04/18 07:03:37;;;;;;;;;8.00;8.00;;;;;11.88;50.76;99213.56;5090715;27;45488;-61
2022/04/18 07:06:03;;;;;;;;;8.00;8.00;;;;;11.95;50.38;99208.00;5097158;27;45565;-63
2022/04/18 07:08:29;;;;;;;;;7.00;7.00;;;;;12.00;50.22;99211.28;5091149;27;45554;-61
2022/04/18 07:10:54;;;;;;;;;9.00;9.00;;;;;12.05;50.09;99204.03;5094603;27;45589;-61
2022/04/18 07:13:20;;;;;;;;;6.00;6.00;;;;;12.10;49.68;99208.16;5093573;27;45491;-61
2022/04/18 07:15:45;;;;;;;;;8.50;8.00;;;;;12.16;49.78;99197.31;5095497;27;45675;-61
2022/04/18 07:18:11;;;;;;;;;6.00;6.00;;;;;12.22;49.63;99202.34;5091307;27;45553;-61
2022/04/18 07:20:36;;;;;;;;;9.00;7.75;;;;;12.29;49.65;99194.13;5093670;27;45330;-61
2022/04/18 07:23:02;;;;;;;;;6.00;6.00;;;;;12.33;49.23;99199.19;5090081;27;45596;-61
2022/04/18 07:25:27;;;;;;;;;7.75;7.75;;;;;12.40;48.82;99200.63;5093890;27;45392;-61
2022/04/18 07:27:53;;;;;;;;;5.75;4.25;;;;;12.47;48.57;99193.25;5092986;27;45613;-61
2022/04/18 07:30:18;;;;;;;;;10.50;10.25;;;;;12.54;48.13;99194.72;5095625;27;45409;-62
2022/04/18 07:32:44;;;;;;;;;7.25;7.25;;;;;12.58;47.75;99186.53;5094856;27;45454;-61
2022/04/18 07:35:11;;;;;;;;;8.00;8.00;;;;;12.65;47.23;99189.75;5096236;27;45503;-61
2022/04/18 07:37:37;;;;;;;;;5.50;5.00;;;;;12.68;47.25;99184.34;5093072;27;45560;-61
2022/04/18 07:40:03;;;;;;;;;5.75;5.75;;;;;12.73;47.21;99187.63;5102536;27;45443;-61
2022/04/18 07:42:28;;;;;;;;;7.00;5.50;;;;;12.77;47.34;99189.16;5094669;27;45602;-61
2022/04/18 07:44:54;;;;;;;;;9.50;8.75;;;;;12.83;47.23;99188.88;5088882;27;45443;-61
2022/04/18 07:47:20;;;;;;;;;8.00;8.00;;;;;12.89;46.77;99188.59;5091209;27;45471;-61
2022/04/18 07:49:45;;;;;;;;;7.00;7.00;;;;;12.93;46.69;99184.84;5090256;27;45411;-61
2022/04/18 07:52:12;;;;;;;;;6.75;6.75;;;;;13.01;46.50;99191.56;5093145;27;45435;-61
2022/04/18 07:54:38;;;;;;;;;9.25;8.00;;;;;13.06;46.60;99184.28;5090704;27;45488;-61
2022/04/18 07:57:04;;;;;;;;;8.00;8.00;;;;;13.10;46.36;99186.66;5087718;27;45380;-61
2022/04/18 07:59:31;;;;;;;;;8.00;8.00;;;;;13.17;46.06;99176.69;5091760;27;45469;-61
2022/04/18 08:01:56;;;;;;;;;8.25;8.25;;;;;13.23;46.03;99177.25;5089869;27;45318;-61
2022/04/18 08:04:21;;;;;;;;;13.50;10.25;;;;;13.30;45.64;99171.63;5091858;27;45893;-61
2022/04/18 08:06:47;;;;;;;;;8.50;8.50;;;;;13.36;45.14;99177.47;5094271;27;45406;-61
2022/04/18 08:09:12;;;;;;;;;6.75;6.50;;;;;13.41;45.21;99174.56;5092200;27;45431;-61
2022/04/18 08:11:38;;;;;;;;;8.50;8.00;;;;;13.47;44.71;99167.19;5095310;27;45418;-61
2022/04/18 08:14:03;;;;;;;;;9.75;8.00;;;;;13.53;44.57;99161.59;5088562;27;47717;-61
2022/04/18 08:16:29;;;;;;;;;9.50;8.25;;;;;13.61;44.39;99166.47;5095009;27;47234;-61
2022/04/18 08:18:55;;;;;;;;;7.25;7.00;;;;;13.69;44.35;99151.06;5104311;27;45360;-61
2022/04/18 08:21:20;;;;;;;;;9.25;7.75;;;;;13.74;44.13;99164.91;5095779;27;45301;-61
2022/04/18 08:23:48;;;;;;;;;7.25;6.25;;;;;13.80;44.20;99151.34;5086713;27;45401;-61
2022/04/18 08:26:14;;;;;;;;;10.00;9.00;;;;;13.89;44.26;99150.00;5092924;27;45457;-61
2022/04/18 08:28:41;;;;;;;;;6.50;6.50;;;;;13.96;44.09;99151.38;5087454;27;45476;-61
2022/04/18 08:31:07;;;;;;;;;9.00;7.75;;;;;14.02;44.20;99151.06;5095021;27;45505;-61
2022/04/18 08:33:33;;;;;;;;;9.50;8.00;;;;;14.08;43.97;99145.41;5082104;27;45523;-61
2022/04/18 08:35:59;;;;;;;;;9.25;8.00;;;;;14.15;43.85;99148.59;5096117;27;45551;-61
2022/04/18 08:38:26;;;;;;;;;7.25;7.25;;;;;14.21;43.78;99146.47;5086313;27;45366;-61
2022/04/18 08:40:55;;;;;;;;;8.25;7.00;;;;;14.29;43.43;99148.69;5095150;27;45503;-61
2022/04/18 08:43:20;;;;;;;;;9.25;8.50;;;;;14.32;43.38;99146.75;5088443;27;46362;-61
2022/04/18 08:45:47;;;;;;;;;9.25;9.25;;;;;14.40;43.42;99148.13;5095615;27;45309;-65
2022/04/18 08:53:42;;;;;;;;;9.50;9.50;;;;;14.57;43.55;99140.13;5082722;27;45848;-65
2022/04/18 08:56:08;;;;;;;;;10.25;9.75;;;;;14.61;43.28;99134.53;5078831;27;45432;-65
2022/04/18 08:58:34;;;;;;;;;11.75;9.25;;;;;14.68;43.18;99137.72;5081215;27;45396;-65
2022/04/18 09:01:01;;;;;;;;;7.25;7.25;;;;;14.75;43.10;99131.09;5091159;27;45483;-65
2022/04/18 09:03:26;;;;;;;;;9.25;8.25;;;;;14.80;42.84;99133.50;5087092;27;45540;-65
2022/04/18 09:06:10;;;;;;;;;12.75;11.25;;;;;14.85;42.62;99129.66;5088460;27;45388;-65
2022/04/18 09:08:47;;;;;;;;;8.00;6.00;;;;;14.85;42.85;99128.78;5084959;27;45485;-65
2022/04/18 09:11:29;;;;;;;;;7.00;7.00;;;;;14.90;42.73;99124.94;5094439;27;45733;-65
2022/04/18 09:14:05;;;;;;;;;9.00;7.00;;;;;14.97;42.61;99123.63;5084483;27;45689;-65
2022/04/18 09:16:31;;;;;;;;;6.50;3.50;;;;;15.04;42.23;99120.63;5081323;27;45637;-66
2022/04/18 09:19:05;;;;;;;;;10.00;9.00;;;;;15.10;42.49;99113.13;5089789;27;45321;-65
2022/04/18 09:21:32;;;;;;;;;10.25;9.25;;;;;15.15;42.15;99111.06;5094602;27;45609;-65
2022/04/18 09:23:58;;;;;;;;;7.75;7.75;;;;;15.20;42.04;99106.34;5094504;27;46361;-65
2022/04/18 09:26:24;;;;;;;;;9.75;8.00;;;;;15.28;41.82;99103.22;5094567;27;45329;-65
2022/04/18 09:28:50;;;;;;;;;7.25;7.25;;;;;15.34;41.91;99102.88;5091228;27;45396;-65
2022/04/18 09:31:24;;;;;;;;;7.75;7.75;;;;;15.40;42.21;99096.34;5094734;27;45505;-65
2022/04/18 09:33:56;;;;;;;;;10.25;7.75;;;;;15.45;41.44;99097.75;5083682;27;46572;-65
2022/04/18 09:36:24;;;;;;;;;8.25;8.25;;;;;15.49;41.46;99098.44;5094754;27;45371;-65
2022/04/18 09:38:59;;;;;;;;;8.00;8.00;;;;;15.55;41.35;99085.69;5094080;27;45428;-65
2022/04/18 09:41:29;;;;;;;;;9.25;8.75;;;;;15.59;40.74;99088.97;5094234;27;45616;-65
2022/04/18 09:43:56;;;;;;;;;10.50;9.00;;;;;15.61;40.83;99084.44;5093827;27;46220;-65
2022/04/18 09:46:22;;;;;;;;;8.25;6.25;;;;;15.62;40.24;99084.34;5081205;27;45493;-65
2022/04/18 09:48:49;;;;;;;;;5.75;5.00;;;;;15.64;40.51;99078.94;5095597;27;45450;-65
2022/04/18 09:51:27;;;;;;;;;7.50;6.00;;;;;15.66;40.23;99077.91;5094304;27;45406;-65
2022/04/18 09:53:57;;;;;;;;;6.25;6.25;;;;;15.70;40.45;99071.44;5091278;27;46174;-66
2022/04/18 09:56:24;;;;;;;;;6.00;4.00;;;;;15.76;40.49;99064.03;5091908;27;45414;-70
2022/04/18 09:58:51;;;;;;;;;9.00;8.00;;;;;15.82;40.00;99071.63;5083845;27;45496;-67
2022/04/18 10:01:16;;;;;;;;;10.25;9.75;;;;;15.87;39.73;99069.53;5080912;27;45436;-67
2022/04/18 10:03:43;;;;;;;;;6.75;6.75;;;;;15.92;39.89;99068.28;5090695;27;45451;-67
2022/04/18 10:06:10;;;;;;;;;7.50;7.50;;;;;15.98;40.12;99064.41;5044597;27;45316;-67
2022/04/18 10:08:36;;;;;;;;;10.50;6.50;;;;;16.04;39.86;99056.03;5068659;28;45312;-67
2022/04/18 10:11:04;;;;;;;;;8.00;7.75;;;;;16.09;40.00;99053.09;5073625;27;45559;-67
2022/04/18 10:13:31;;;;;;;;;6.25;6.25;;;;;16.15;39.60;99044.72;5068966;27;45509;-58
2022/04/18 10:15:58;;;;;;;;;7.50;7.50;;;;;16.25;39.49;99044.03;5073522;27;45392;-58
2022/04/18 10:18:24;;;;;;;;;7.75;7.50;;;;;16.36;39.72;99046.00;5072019;27;45424;-57
2022/04/18 10:21:08;;;;;;;;;8.50;8.50;;;;;16.50;39.52;99034.44;5077176;27;45428;-58
2022/04/18 10:23:58;;;;;;;;;9.00;8.50;;;;;16.62;38.59;99041.63;5065919;28;45557;-58
2022/04/18 10:26:23;;;;;;;;;5.40;4.80;;;;;16.69;38.52;99037.66;5075627;27;45475;-67
2022/04/18 10:28:53;;;;;;;;;6.25;5.50;;;;;16.72;38.38;99032.13;5069401;27;45474;-67
2022/04/18 10:31:30;;;;;;;;;7.75;6.25;;;;;16.74;37.55;99022.22;5075699;27;45368;-67
2022/04/18 10:33:57;;;;;;;;;8.00;5.00;;;;;16.77;36.27;99024.66;5072512;28;45412;-67
2022/04/18 10:36:27;;;;;;;;;6.20;5.80;;;;;16.80;37.32;99004.97;5076653;28;45375;-67
2022/04/18 10:38:56;;;;;;;;;6.75;6.75;;;;;16.85;37.42;98997.53;5076719;27;45426;-67
2022/04/18 10:41:43;;;;;;;;;6.00;6.00;;;;;16.95;36.89;98996.78;5076821;27;45553;-68
2022/04/18 10:44:13;;;;;;;;;7.50;5.50;;;;;17.03;36.40;98993.63;5071147;28;45556;-67
2022/04/18 10:47:01;;;;;;;;;6.00;6.00;;;;;17.10;36.24;98995.75;5076340;27;45357;-67
2022/04/18 10:49:31;;;;;;;;;6.50;5.75;;;;;17.18;36.29;98975.72;5076665;27;45423;-67
2022/04/18 10:52:07;;;;;;;;;5.75;4.75;;;;;17.24;37.11;98969.97;5074460;27;45455;-67
2022/04/18 10:54:33;;;;;;;;;5.50;5.50;;;;;17.31;34.95;98960.59;5072126;28;45479;-67
2022/04/18 10:57:13;;;;;;;;;6.75;5.00;;;;;17.35;35.96;98962.94;5072865;27;45370;-67
2022/04/18 10:59:42;;;;;;;;;6.75;5.00;;;;;17.43;35.03;98955.22;5072085;27;45385;-67
2022/04/18 11:02:29;;;;;;;;;5.50;4.00;;;;;17.56;36.51;98957.06;5071093;28;45511;-67
2022/04/18 11:04:54;;;;;;;;;4.00;4.00;;;;;17.68;34.84;98956.19;5064392;28;45388;-67
2022/04/18 11:07:37;;;;;;;;;7.25;7.25;;;;;17.79;35.53;98962.44;5072702;28;45462;-67
2022/04/18 11:10:20;;;;;;;;;6.75;5.50;;;;;17.87;34.47;98939.72;5072276;28;45427;-67
2022/04/18 11:12:46;;;;;;;;;5.25;5.25;;;;;17.96;34.20;98937.22;5068372;27;45468;-67
2022/04/18 11:15:12;;;;;;;;;7.00;5.00;;;;;18.03;33.26;98937.63;5076216;27;45818;-67
2022/04/18 11:17:39;;;;;;;;;6.25;6.00;;;;;18.07;34.97;98931.97;5069194;27;45491;-67
2022/04/18 11:20:32;;;;;;;;;6.25;5.25;;;;;18.16;32.83;98930.44;5075207;28;45447;-67
2022/04/18 11:23:22;;;;;;;;;8.25;6.50;;;;;18.22;33.72;98916.66;5067406;27;45503;-66
2022/04/18 11:25:58;;;;;;;;;9.00;7.00;;;;;18.31;33.94;98921.28;5069899;27;46221;-65
2022/04/18 11:28:30;;;;;;;;;7.75;6.75;;;;;18.38;33.92;98919.88;5070053;27;45579;-65
2022/04/18 11:30:56;;;;;;;;;6.75;4.50;;;;;18.44;33.60;98907.84;5069592;28;45387;-65
2022/04/18 11:33:21;;;;;;;;;1.50;1.50;;;;;18.54;31.16;98911.53;5076650;28;45420;-65
2022/04/18 11:35:47;;;;;;;;;4.00;3.00;;;;;18.62;31.57;98916.31;5068794;28;45394;-65
2022/04/18 11:38:13;;;;;;;;;4.60;4.60;;;;;18.64;29.97;98904.56;5076098;28;45358;-65
2022/04/18 11:40:40;;;;;;;;;3.00;3.00;;;;;18.68;29.32;98905.19;5086026;27;45352;-65
2022/04/18 11:43:23;;;;;;;;;2.75;2.25;;;;;18.71;29.67;98916.50;5076011;28;45392;-65
2022/04/18 11:45:49;;;;;;;;;6.00;6.00;;;;;18.73;29.58;98906.53;5075509;28;46518;-65
2022/04/18 11:48:21;;;;;;;;;5.00;5.00;;;;;18.79;29.91;98886.50;5075832;28;45471;-65
2022/04/18 11:50:46;;;;;;;;;3.00;2.00;;;;;18.86;29.63;98893.09;5074051;27;45338;-65